![]() |
EMODnet Physics ERDDAP
Easier access to scientific data |
log in|
Brought to you by EMODnet Physics |
| Dataset Title: | NDBC - Collection of dew point temperature (DEWT) TimeSeries - IN SITU MultiPointTimeSeriesObservation
|
| Institution: | NDBC (Dataset ID: TS_DEWT_NDBC) |
| Information: | Summary
| License
| FGDC
| ISO 19115
| Metadata
| Background
| Subset
| Data Access Form
| Make a graph
|
| Name | Last modified | Size | Description | |
|---|---|---|---|---|
| Parent Directory | - | - | ||
| AMAA2_TS_DEWT_012004.nc | 27-Oct-2024 05:14 | 634414 | ||
| AMAA2_TS_DEWT_012005.nc | 27-Oct-2024 05:14 | 659262 | ||
| AMAA2_TS_DEWT_012006.nc | 27-Oct-2024 05:14 | 654721 | ||
| AMAA2_TS_DEWT_012007.nc | 27-Oct-2024 05:14 | 2417395 | ||
| AMAA2_TS_DEWT_012008.nc | 27-Oct-2024 05:15 | 636971 | ||
| AMAA2_TS_DEWT_012009.nc | 27-Oct-2024 05:15 | 433654 | ||
| AMAA2_TS_DEWT_012010.nc | 27-Oct-2024 05:15 | 431250 | ||
| AMAA2_TS_DEWT_012011.nc | 27-Oct-2024 05:15 | 629618 | ||
| AMAA2_TS_DEWT_012013.nc | 27-Oct-2024 05:15 | 677902 | ||
| AMAA2_TS_DEWT_012014.nc | 27-Oct-2024 05:15 | 640113 | ||
| AMAA2_TS_DEWT_012015.nc | 27-Oct-2024 05:15 | 456847 | ||
| AMAA2_TS_DEWT_012016.nc | 27-Oct-2024 05:15 | 1016669 | ||
| AMAA2_TS_DEWT_012017.nc | 27-Oct-2024 05:15 | 658428 | ||
| AMAA2_TS_DEWT_012019.nc | 27-Oct-2024 05:15 | 659005 | ||
| AMAA2_TS_DEWT_012020.nc | 27-Oct-2024 05:15 | 656629 | ||
| AMAA2_TS_DEWT_012021.nc | 27-Oct-2024 05:15 | 2893045 | ||
| AMAA2_TS_DEWT_012022.nc | 27-Oct-2024 05:15 | 1112915 | ||
| AMAA2_TS_DEWT_012024.nc | 27-Oct-2024 05:15 | 1110736 | ||
| AMAA2_TS_DEWT_012025.nc | 07-Feb-2025 14:05 | 1261157 | ||
| AMAA2_TS_DEWT_012026.nc | 02-Feb-2026 13:56 | 1265356 | ||
| AMAA2_TS_DEWT_022004.nc | 27-Oct-2024 05:15 | 1261433 | ||
| AMAA2_TS_DEWT_022005.nc | 27-Oct-2024 05:15 | 1262290 | ||
| AMAA2_TS_DEWT_022006.nc | 27-Oct-2024 05:16 | 1112137 | ||
| AMAA2_TS_DEWT_022007.nc | 27-Oct-2024 05:16 | 1014714 | ||
| AMAA2_TS_DEWT_022008.nc | 27-Oct-2024 05:16 | 1114920 | ||
| AMAA2_TS_DEWT_022009.nc | 27-Oct-2024 05:16 | 5574016 | ||
| AMAA2_TS_DEWT_022010.nc | 27-Oct-2024 05:16 | 1107561 | ||
| AMAA2_TS_DEWT_022011.nc | 27-Oct-2024 05:16 | 1110670 | ||
| AMAA2_TS_DEWT_022013.nc | 27-Oct-2024 05:16 | 1110145 | ||
| AMAA2_TS_DEWT_022014.nc | 27-Oct-2024 05:16 | 1106335 | ||
| AMAA2_TS_DEWT_022015.nc | 27-Oct-2024 05:16 | 1108430 | ||
| AMAA2_TS_DEWT_022016.nc | 27-Oct-2024 05:16 | 1101874 | ||
| AMAA2_TS_DEWT_022017.nc | 27-Oct-2024 05:16 | 1026413 | ||
| AMAA2_TS_DEWT_022019.nc | 27-Oct-2024 05:16 | 1004839 | ||
| AMAA2_TS_DEWT_022020.nc | 27-Oct-2024 05:16 | 1031697 | ||
| AMAA2_TS_DEWT_022021.nc | 27-Oct-2024 05:16 | 2888574 | ||
| AMAA2_TS_DEWT_022022.nc | 27-Oct-2024 05:16 | 420976 | ||
| AMAA2_TS_DEWT_022024.nc | 16-Sep-2024 16:51 | 1261489 | ||
| AMAA2_TS_DEWT_022025.nc | 01-Mar-2025 09:08 | 1262059 | ||
| AMAA2_TS_DEWT_022026.nc | 01-Mar-2026 13:15 | 1259978 | ||
| AMAA2_TS_DEWT_032004.nc | 27-Oct-2024 05:16 | 1260472 | ||
| AMAA2_TS_DEWT_032005.nc | 27-Oct-2024 05:16 | 1260207 | ||
| AMAA2_TS_DEWT_032006.nc | 27-Oct-2024 05:16 | 1110979 | ||
| AMAA2_TS_DEWT_032007.nc | 27-Oct-2024 05:17 | 1109987 | ||
| AMAA2_TS_DEWT_032008.nc | 27-Oct-2024 05:17 | 1024484 | ||
| AMAA2_TS_DEWT_032009.nc | 27-Oct-2024 05:17 | 1108512 | ||
| AMAA2_TS_DEWT_032010.nc | 27-Oct-2024 05:17 | 4694731 | ||
| AMAA2_TS_DEWT_032011.nc | 27-Oct-2024 05:17 | 1264429 | ||
| AMAA2_TS_DEWT_032013.nc | 27-Oct-2024 05:17 | 1260802 | ||
| AMAA2_TS_DEWT_032014.nc | 27-Oct-2024 05:17 | 1260658 | ||
| AMAA2_TS_DEWT_032015.nc | 27-Oct-2024 05:17 | 1109020 | ||
| AMAA2_TS_DEWT_032016.nc | 27-Oct-2024 05:17 | 1017142 | ||
| AMAA2_TS_DEWT_032017.nc | 27-Oct-2024 05:17 | 1261514 | ||
| AMAA2_TS_DEWT_032019.nc | 27-Oct-2024 05:17 | 1111245 | ||
| AMAA2_TS_DEWT_032020.nc | 27-Oct-2024 05:17 | 1031351 | ||
| AMAA2_TS_DEWT_032021.nc | 27-Oct-2024 05:17 | 1022897 | ||
| AMAA2_TS_DEWT_032022.nc | 27-Oct-2024 05:17 | 1105256 | ||
| AMAA2_TS_DEWT_032025.nc | 02-Apr-2025 07:14 | 4953495 | ||
| AMAA2_TS_DEWT_032026.nc | 21-Mar-2026 15:57 | 1108644 | ||
| AMAA2_TS_DEWT_042003.nc | 27-Oct-2024 05:17 | 1110109 | ||
| AMAA2_TS_DEWT_042004.nc | 27-Oct-2024 05:17 | 1108307 | ||
| AMAA2_TS_DEWT_042005.nc | 27-Oct-2024 05:17 | 1111372 | ||
| AMAA2_TS_DEWT_042006.nc | 27-Oct-2024 05:17 | 1110434 | ||
| AMAA2_TS_DEWT_042007.nc | 27-Oct-2024 05:18 | 1104935 | ||
| AMAA2_TS_DEWT_042008.nc | 27-Oct-2024 05:18 | 1106087 | ||
| AMAA2_TS_DEWT_042009.nc | 27-Oct-2024 05:18 | 1006322 | ||
| AMAA2_TS_DEWT_042010.nc | 27-Oct-2024 05:18 | 1021741 | ||
| AMAA2_TS_DEWT_042011.nc | 27-Oct-2024 05:18 | 1019487 | ||
| AMAA2_TS_DEWT_042012.nc | 27-Oct-2024 05:18 | 1361392 | ||
| AMAA2_TS_DEWT_042013.nc | 27-Oct-2024 05:18 | 4398977 | ||
| AMAA2_TS_DEWT_042014.nc | 27-Oct-2024 05:18 | 475980 | ||
| AMAA2_TS_DEWT_042015.nc | 27-Oct-2024 05:18 | 1012794 | ||
| AMAA2_TS_DEWT_042016.nc | 27-Oct-2024 05:18 | 644570 | ||
| AMAA2_TS_DEWT_042017.nc | 27-Oct-2024 05:18 | 1263601 | ||
| AMAA2_TS_DEWT_042019.nc | 27-Oct-2024 05:18 | 1006420 | ||
| AMAA2_TS_DEWT_042020.nc | 27-Oct-2024 05:18 | 1027774 | ||
| AMAA2_TS_DEWT_042021.nc | 27-Oct-2024 05:18 | 457949 | ||
| AMAA2_TS_DEWT_042022.nc | 27-Oct-2024 05:18 | 651865 | ||
| AMAA2_TS_DEWT_042023.nc | 27-Oct-2024 05:18 | 1015711 | ||
| AMAA2_TS_DEWT_042025.nc | 15-May-2025 05:06 | 1115706 | ||
| AMAA2_TS_DEWT_052003.nc | 27-Oct-2024 05:18 | 1207754 | ||
| AMAA2_TS_DEWT_052004.nc | 27-Oct-2024 05:18 | 5049176 | ||
| AMAA2_TS_DEWT_052005.nc | 27-Oct-2024 05:19 | 478714 | ||
| AMAA2_TS_DEWT_052006.nc | 27-Oct-2024 05:19 | 442118 | ||
| AMAA2_TS_DEWT_052007.nc | 27-Oct-2024 05:19 | 641884 | ||
| AMAA2_TS_DEWT_052008.nc | 27-Oct-2024 05:19 | 1606762 | ||
| AMAA2_TS_DEWT_052009.nc | 27-Oct-2024 05:19 | 476431 | ||
| AMAA2_TS_DEWT_052010.nc | 27-Oct-2024 05:19 | 1112546 | ||
| AMAA2_TS_DEWT_052011.nc | 27-Oct-2024 05:19 | 456139 | ||
| AMAA2_TS_DEWT_052012.nc | 27-Oct-2024 05:19 | 1261794 | ||
| AMAA2_TS_DEWT_052013.nc | 27-Oct-2024 05:19 | 643686 | ||
| AMAA2_TS_DEWT_052014.nc | 27-Oct-2024 05:19 | 906624 | ||
| AMAA2_TS_DEWT_052015.nc | 27-Oct-2024 05:19 | 453379 | ||
| AMAA2_TS_DEWT_052016.nc | 27-Oct-2024 05:19 | 1107987 | ||
| AMAA2_TS_DEWT_052017.nc | 27-Oct-2024 05:19 | 1110204 | ||
| AMAA2_TS_DEWT_052019.nc | 27-Oct-2024 05:19 | 633570 | ||
| AMAA2_TS_DEWT_052020.nc | 27-Oct-2024 05:19 | 637893 | ||
| AMAA2_TS_DEWT_052021.nc | 27-Oct-2024 05:19 | 1260801 | ||
| AMAA2_TS_DEWT_052022.nc | 27-Oct-2024 05:19 | 1262416 | ||
| AMAA2_TS_DEWT_052023.nc | 27-Oct-2024 05:19 | 1111288 | ||
| AMAA2_TS_DEWT_052025.nc | 01-Jun-2025 06:08 | 676971 | ||
| AMAA2_TS_DEWT_062003.nc | 27-Oct-2024 05:19 | 661975 | ||
| AMAA2_TS_DEWT_062004.nc | 27-Oct-2024 05:19 | 1262966 | ||
| AMAA2_TS_DEWT_062005.nc | 27-Oct-2024 05:19 | 1263398 | ||
| AMAA2_TS_DEWT_062006.nc | 27-Oct-2024 05:19 | 1028373 | ||
| AMAA2_TS_DEWT_062007.nc | 27-Oct-2024 05:19 | 1023512 | ||
| AMAA2_TS_DEWT_062008.nc | 27-Oct-2024 05:20 | 634010 | ||
| AMAA2_TS_DEWT_062009.nc | 27-Oct-2024 05:20 | 1108993 | ||
| AMAA2_TS_DEWT_062010.nc | 27-Oct-2024 05:20 | 1110502 | ||
| AMAA2_TS_DEWT_062011.nc | 27-Oct-2024 05:20 | 1031070 | ||
| AMAA2_TS_DEWT_062012.nc | 27-Oct-2024 05:20 | 985313 | ||
| AMAA2_TS_DEWT_062013.nc | 27-Oct-2024 05:20 | 641388 | ||
| AMAA2_TS_DEWT_062014.nc | 27-Oct-2024 05:20 | 430770 | ||
| AMAA2_TS_DEWT_062015.nc | 27-Oct-2024 05:20 | 1263298 | ||
| AMAA2_TS_DEWT_062016.nc | 27-Oct-2024 05:20 | 1114651 | ||
| AMAA2_TS_DEWT_062017.nc | 27-Oct-2024 05:20 | 996672 | ||
| AMAA2_TS_DEWT_062018.nc | 27-Oct-2024 05:20 | 653205 | ||
| AMAA2_TS_DEWT_062019.nc | 27-Oct-2024 05:20 | 644124 | ||
| AMAA2_TS_DEWT_062020.nc | 27-Oct-2024 05:20 | 632696 | ||
| AMAA2_TS_DEWT_062021.nc | 27-Oct-2024 05:20 | 427633 | ||
| AMAA2_TS_DEWT_062022.nc | 27-Oct-2024 05:20 | 648931 | ||
| AMAA2_TS_DEWT_062023.nc | 27-Oct-2024 05:20 | 446884 | ||
| AMAA2_TS_DEWT_062025.nc | 01-Jul-2025 05:42 | 645372 | ||
| AMAA2_TS_DEWT_072003.nc | 27-Oct-2024 05:20 | 1260977 | ||
| AMAA2_TS_DEWT_072004.nc | 27-Oct-2024 05:20 | 1008539 | ||
| AMAA2_TS_DEWT_072005.nc | 27-Oct-2024 05:20 | 1108934 | ||
| AMAA2_TS_DEWT_072006.nc | 27-Oct-2024 05:21 | 999948 | ||
| AMAA2_TS_DEWT_072007.nc | 27-Oct-2024 05:21 | 1113005 | ||
| AMAA2_TS_DEWT_072008.nc | 27-Oct-2024 05:21 | 479168 | ||
| AMAA2_TS_DEWT_072009.nc | 27-Oct-2024 05:21 | 645036 | ||
| AMAA2_TS_DEWT_072010.nc | 27-Oct-2024 05:21 | 1041232 | ||
| AMAA2_TS_DEWT_072011.nc | 27-Oct-2024 05:21 | 979584 | ||
| AMAA2_TS_DEWT_072012.nc | 27-Oct-2024 05:21 | 1109587 | ||
| AMAA2_TS_DEWT_072013.nc | 27-Oct-2024 05:21 | 1107919 | ||
| AMAA2_TS_DEWT_072014.nc | 27-Oct-2024 05:21 | 1107418 | ||
| AMAA2_TS_DEWT_072015.nc | 27-Oct-2024 05:21 | 1108117 | ||
| AMAA2_TS_DEWT_072016.nc | 27-Oct-2024 05:21 | 1109745 | ||
| AMAA2_TS_DEWT_072017.nc | 27-Oct-2024 05:21 | 480541 | ||
| AMAA2_TS_DEWT_072018.nc | 27-Oct-2024 05:21 | 1003494 | ||
| AMAA2_TS_DEWT_072019.nc | 27-Oct-2024 05:21 | 991417 | ||
| AMAA2_TS_DEWT_072020.nc | 27-Oct-2024 05:21 | 451523 | ||
| AMAA2_TS_DEWT_072021.nc | 27-Oct-2024 05:21 | 1263952 | ||
| AMAA2_TS_DEWT_072022.nc | 27-Oct-2024 05:21 | 1262958 | ||
| AMAA2_TS_DEWT_072023.nc | 27-Oct-2024 05:21 | 1112964 | ||
| AMAA2_TS_DEWT_072025.nc | 01-Aug-2025 05:46 | 1260011 | ||
| AMAA2_TS_DEWT_082003.nc | 27-Oct-2024 05:21 | 1260313 | ||
| AMAA2_TS_DEWT_082004.nc | 27-Oct-2024 05:21 | 1265819 | ||
| AMAA2_TS_DEWT_082005.nc | 27-Oct-2024 05:22 | 1004996 | ||
| AMAA2_TS_DEWT_082006.nc | 27-Oct-2024 05:22 | 1217575 | ||
| AMAA2_TS_DEWT_082007.nc | 27-Oct-2024 05:22 | 1022333 | ||
| AMAA2_TS_DEWT_082008.nc | 27-Oct-2024 05:22 | 1100095 | ||
| AMAA2_TS_DEWT_082009.nc | 27-Oct-2024 05:22 | 3295111 | ||
| AMAA2_TS_DEWT_082010.nc | 27-Oct-2024 05:22 | 1260658 | ||
| AMAA2_TS_DEWT_082011.nc | 27-Oct-2024 05:22 | 1261881 | ||
| AMAA2_TS_DEWT_082012.nc | 27-Oct-2024 05:22 | 1259432 | ||
| AMAA2_TS_DEWT_082013.nc | 27-Oct-2024 05:22 | 1104073 | ||
| AMAA2_TS_DEWT_082014.nc | 27-Oct-2024 05:22 | 1259342 | ||
| AMAA2_TS_DEWT_082015.nc | 27-Oct-2024 05:22 | 1108580 | ||
| AMAA2_TS_DEWT_082016.nc | 27-Oct-2024 05:22 | 637496 | ||
| AMAA2_TS_DEWT_082017.nc | 27-Oct-2024 05:22 | 1106031 | ||
| AMAA2_TS_DEWT_082018.nc | 27-Oct-2024 05:22 | 1022123 | ||
| AMAA2_TS_DEWT_082019.nc | 27-Oct-2024 05:22 | 1011510 | ||
| AMAA2_TS_DEWT_082020.nc | 27-Oct-2024 05:22 | 4878878 | ||
| AMAA2_TS_DEWT_082021.nc | 27-Oct-2024 05:22 | 1110111 | ||
| AMAA2_TS_DEWT_082022.nc | 27-Oct-2024 05:22 | 1109054 | ||
| AMAA2_TS_DEWT_082023.nc | 27-Oct-2024 05:22 | 1109666 | ||
| AMAA2_TS_DEWT_082025.nc | 01-Sep-2025 05:31 | 1107468 | ||
| AMAA2_TS_DEWT_092003.nc | 27-Oct-2024 05:22 | 1107407 | ||
| AMAA2_TS_DEWT_092004.nc | 27-Oct-2024 05:22 | 1111202 | ||
| AMAA2_TS_DEWT_092005.nc | 27-Oct-2024 05:22 | 992141 | ||
| AMAA2_TS_DEWT_092006.nc | 27-Oct-2024 05:23 | 1010281 | ||
| AMAA2_TS_DEWT_092007.nc | 27-Oct-2024 05:23 | 2695612 | ||
| AMAA2_TS_DEWT_092008.nc | 27-Oct-2024 05:23 | 477286 | ||
| AMAA2_TS_DEWT_092009.nc | 27-Oct-2024 05:23 | 1260783 | ||
| AMAA2_TS_DEWT_092010.nc | 27-Oct-2024 05:23 | 1095859 | ||
| AMAA2_TS_DEWT_092011.nc | 27-Oct-2024 05:23 | 1262058 | ||
| AMAA2_TS_DEWT_092012.nc | 27-Oct-2024 05:23 | 1263881 | ||
| AMAA2_TS_DEWT_092013.nc | 27-Oct-2024 05:23 | 1261251 | ||
| AMAA2_TS_DEWT_092014.nc | 27-Oct-2024 05:23 | 1101155 | ||
| AMAA2_TS_DEWT_092015.nc | 27-Oct-2024 05:23 | 429703 | ||
| AMAA2_TS_DEWT_092016.nc | 27-Oct-2024 05:23 | 630779 | ||
| AMAA2_TS_DEWT_092017.nc | 27-Oct-2024 05:23 | 444275 | ||
| AMAA2_TS_DEWT_092018.nc | 27-Oct-2024 05:23 | 453862 | ||
| AMAA2_TS_DEWT_092019.nc | 27-Oct-2024 05:23 | 649347 | ||
| AMAA2_TS_DEWT_092020.nc | 27-Oct-2024 05:23 | 649531 | ||
| AMAA2_TS_DEWT_092021.nc | 27-Oct-2024 05:23 | 1003992 | ||
| AMAA2_TS_DEWT_092022.nc | 27-Oct-2024 05:23 | 1262593 | ||
| AMAA2_TS_DEWT_092023.nc | 27-Oct-2024 05:23 | 1108339 | ||
| AMAA2_TS_DEWT_092025.nc | 14-Nov-2025 04:37 | 649772 | ||
| AMAA2_TS_DEWT_102003.nc | 27-Oct-2024 05:23 | 1265986 | ||
| AMAA2_TS_DEWT_102004.nc | 27-Oct-2024 05:23 | 465767 | ||
| AMAA2_TS_DEWT_102005.nc | 27-Oct-2024 05:23 | 439314 | ||
| AMAA2_TS_DEWT_102006.nc | 27-Oct-2024 05:24 | 652029 | ||
| AMAA2_TS_DEWT_102007.nc | 27-Oct-2024 05:24 | 1026337 | ||
| AMAA2_TS_DEWT_102008.nc | 27-Oct-2024 05:24 | 989946 | ||
| AMAA2_TS_DEWT_102009.nc | 27-Oct-2024 05:24 | 1263090 | ||
| AMAA2_TS_DEWT_102010.nc | 27-Oct-2024 05:24 | 1000387 | ||
| AMAA2_TS_DEWT_102011.nc | 27-Oct-2024 05:24 | 915969 | ||
| AMAA2_TS_DEWT_102012.nc | 27-Oct-2024 05:24 | 1110582 | ||
| AMAA2_TS_DEWT_102013.nc | 27-Oct-2024 05:24 | 1109832 | ||
| AMAA2_TS_DEWT_102014.nc | 27-Oct-2024 05:24 | 1109862 | ||
| AMAA2_TS_DEWT_102015.nc | 27-Oct-2024 05:24 | 1012627 | ||
| AMAA2_TS_DEWT_102016.nc | 27-Oct-2024 05:24 | 906290 | ||
| AMAA2_TS_DEWT_102018.nc | 27-Oct-2024 05:24 | 1026634 | ||
| AMAA2_TS_DEWT_102019.nc | 27-Oct-2024 05:24 | 1263851 | ||
| AMAA2_TS_DEWT_102020.nc | 27-Oct-2024 05:24 | 1261942 | ||
| AMAA2_TS_DEWT_102021.nc | 27-Oct-2024 05:24 | 1104117 | ||
| AMAA2_TS_DEWT_102022.nc | 27-Oct-2024 05:24 | 1011654 | ||
| AMAA2_TS_DEWT_102023.nc | 27-Oct-2024 05:24 | 1110475 | ||
| AMAA2_TS_DEWT_102024.nc | 12-Jan-2025 21:05 | 1019936 | ||
| AMAA2_TS_DEWT_102025.nc | 14-Nov-2025 04:38 | 1263059 | ||
| AMAA2_TS_DEWT_112003.nc | 27-Oct-2024 05:24 | 1108806 | ||
| AMAA2_TS_DEWT_112004.nc | 27-Oct-2024 05:24 | 1262133 | ||
| AMAA2_TS_DEWT_112005.nc | 27-Oct-2024 05:24 | 1003495 | ||
| AMAA2_TS_DEWT_112006.nc | 27-Oct-2024 05:24 | 1105804 | ||
| AMAA2_TS_DEWT_112007.nc | 27-Oct-2024 05:24 | 1107974 | ||
| AMAA2_TS_DEWT_112008.nc | 27-Oct-2024 05:25 | 1111131 | ||
| AMAA2_TS_DEWT_112009.nc | 27-Oct-2024 05:25 | 1109955 | ||
| AMAA2_TS_DEWT_112010.nc | 27-Oct-2024 05:25 | 1110000 | ||
| AMAA2_TS_DEWT_112011.nc | 27-Oct-2024 05:25 | 1009266 | ||
| AMAA2_TS_DEWT_112012.nc | 27-Oct-2024 05:25 | 1019138 | ||
| AMAA2_TS_DEWT_112013.nc | 27-Oct-2024 05:25 | 1007311 | ||
| AMAA2_TS_DEWT_112014.nc | 27-Oct-2024 05:25 | 2617435 | ||
| AMAA2_TS_DEWT_112015.nc | 27-Oct-2024 05:25 | 915877 | ||
| AMAA2_TS_DEWT_112016.nc | 27-Oct-2024 05:25 | 1263673 | ||
| AMAA2_TS_DEWT_112018.nc | 27-Oct-2024 05:25 | 1004599 | ||
| AMAA2_TS_DEWT_112019.nc | 27-Oct-2024 05:25 | 1263862 | ||
| AMAA2_TS_DEWT_112020.nc | 27-Oct-2024 05:25 | 1262019 | ||
| AMAA2_TS_DEWT_112021.nc | 27-Oct-2024 05:25 | 1005443 | ||
| AMAA2_TS_DEWT_112022.nc | 27-Oct-2024 05:25 | 1110862 | ||
| AMAA2_TS_DEWT_112023.nc | 27-Oct-2024 05:25 | 1016621 | ||
| AMAA2_TS_DEWT_112024.nc | 17-Jan-2025 15:38 | 5966595 | ||
| AMAA2_TS_DEWT_112025.nc | 01-Dec-2025 08:14 | 423549 | ||
| AMAA2_TS_DEWT_122003.nc | 27-Oct-2024 05:25 | 465043 | ||
| AMAA2_TS_DEWT_122004.nc | 27-Oct-2024 05:25 | 655180 | ||
| AMAA2_TS_DEWT_122005.nc | 27-Oct-2024 05:25 | 428989 | ||
| AMAA2_TS_DEWT_122006.nc | 27-Oct-2024 05:25 | 645430 | ||
| AMAA2_TS_DEWT_122007.nc | 27-Oct-2024 05:25 | 643343 | ||
| AMAA2_TS_DEWT_122008.nc | 27-Oct-2024 05:26 | 567228 | ||
| AMAA2_TS_DEWT_122009.nc | 27-Oct-2024 05:26 | 629427 | ||
| AMAA2_TS_DEWT_122010.nc | 27-Oct-2024 05:26 | 981940 | ||
| AMAA2_TS_DEWT_122012.nc | 27-Oct-2024 05:26 | 651796 | ||
| AMAA2_TS_DEWT_122013.nc | 27-Oct-2024 05:26 | 983032 | ||
| AMAA2_TS_DEWT_122014.nc | 27-Oct-2024 05:26 | 433213 | ||
| AMAA2_TS_DEWT_122015.nc | 27-Oct-2024 05:26 | 2252141 | ||
| AMAA2_TS_DEWT_122016.nc | 27-Oct-2024 05:26 | 629687 | ||
| AMAA2_TS_DEWT_122018.nc | 27-Oct-2024 05:26 | 1315203 | ||
| AMAA2_TS_DEWT_122019.nc | 27-Oct-2024 05:26 | 447622 | ||
| AMAA2_TS_DEWT_122020.nc | 27-Oct-2024 05:26 | 1110133 | ||
| AMAA2_TS_DEWT_122021.nc | 27-Oct-2024 05:26 | 1108646 | ||
| AMAA2_TS_DEWT_122023.nc | 27-Oct-2024 05:26 | 1110395 | ||
| AMAA2_TS_DEWT_122024.nc | 22-Jan-2025 16:54 | 1943220 | ||
| AMAA2_TS_DEWT_122025.nc | 01-Jan-2026 08:47 | 1944706 | ||